sensor_id;sensor_type;location;lat;lon;timestamp;noise_LAeq;noise_LA_min;noise_LA_max;noise_LA01;noise_LA95
36217;Laerm;22259;48.792;8.964;2023-03-14T00:01:27;45.02;42.90;55.86;;
36217;Laerm;22259;48.792;8.964;2023-03-14T00:03:52;50.02;42.83;63.27;;
36217;Laerm;22259;48.792;8.964;2023-03-14T00:06:18;55.88;42.72;72.18;;
36217;Laerm;22259;48.792;8.964;2023-03-14T00:08:44;44.86;42.41;60.32;;
36217;Laerm;22259;48.792;8.964;2023-03-14T00:11:14;44.85;42.93;58.46;;
36217;Laerm;22259;48.792;8.964;2023-03-14T00:13:40;44.76;42.89;56.24;;
36217;Laerm;22259;48.792;8.964;2023-03-14T00:16:06;44.59;42.50;56.87;;
36217;Laerm;22259;48.792;8.964;2023-03-14T00:18:32;45.06;42.56;62.56;;
36217;Laerm;22259;48.792;8.964;2023-03-14T00:20:58;53.50;43.08;70.95;;
36217;Laerm;22259;48.792;8.964;2023-03-14T00:23:24;44.66;42.14;57.08;;
36217;Laerm;22259;48.792;8.964;2023-03-14T00:25:49;44.34;42.50;53.74;;
36217;Laerm;22259;48.792;8.964;2023-03-14T00:28:15;44.24;42.16;55.17;;
36217;Laerm;22259;48.792;8.964;2023-03-14T00:30:40;44.21;42.35;55.29;;
36217;Laerm;22259;48.792;8.964;2023-03-14T00:33:05;44.43;42.59;53.75;;
36217;Laerm;22259;48.792;8.964;2023-03-14T00:35:31;44.00;41.91;52.98;;
36217;Laerm;22259;48.792;8.964;2023-03-14T00:37:56;43.79;41.88;51.36;;
36217;Laerm;22259;48.792;8.964;2023-03-14T00:40:22;43.82;42.01;54.31;;
36217;Laerm;22259;48.792;8.964;2023-03-14T00:42:47;44.15;42.03;52.24;;
36217;Laerm;22259;48.792;8.964;2023-03-14T00:45:12;44.49;42.37;53.12;;
36217;Laerm;22259;48.792;8.964;2023-03-14T00:47:38;44.66;42.32;51.27;;
36217;Laerm;22259;48.792;8.964;2023-03-14T00:50:03;44.14;42.09;53.98;;
36217;Laerm;22259;48.792;8.964;2023-03-14T00:52:29;45.65;42.13;58.77;;
36217;Laerm;22259;48.792;8.964;2023-03-14T00:54:54;44.00;41.61;52.22;;
36217;Laerm;22259;48.792;8.964;2023-03-14T00:57:19;43.59;41.46;50.02;;
36217;Laerm;22259;48.792;8.964;2023-03-14T00:59:45;43.74;42.09;51.33;;
36217;Laerm;22259;48.792;8.964;2023-03-14T01:02:10;43.76;41.63;50.76;;
36217;Laerm;22259;48.792;8.964;2023-03-14T01:04:35;43.94;41.51;55.61;;
36217;Laerm;22259;48.792;8.964;2023-03-14T01:07:02;44.75;42.68;51.65;;
36217;Laerm;22259;48.792;8.964;2023-03-14T01:09:28;44.43;42.19;52.47;;
36217;Laerm;22259;48.792;8.964;2023-03-14T01:11:53;44.01;41.64;52.40;;
36217;Laerm;22259;48.792;8.964;2023-03-14T01:14:18;44.14;41.82;60.84;;
36217;Laerm;22259;48.792;8.964;2023-03-14T01:16:44;43.85;42.09;53.08;;
36217;Laerm;22259;48.792;8.964;2023-03-14T01:19:09;44.27;41.91;50.78;;
36217;Laerm;22259;48.792;8.964;2023-03-14T01:21:34;44.16;42.24;50.36;;
36217;Laerm;22259;48.792;8.964;2023-03-14T01:24:00;43.99;41.84;50.70;;
36217;Laerm;22259;48.792;8.964;2023-03-14T01:26:27;43.78;41.70;51.20;;
36217;Laerm;22259;48.792;8.964;2023-03-14T01:28:53;44.15;41.89;66.69;;
36217;Laerm;22259;48.792;8.964;2023-03-14T01:31:18;43.46;41.38;51.64;;
36217;Laerm;22259;48.792;8.964;2023-03-14T01:33:44;43.75;41.30;51.22;;
36217;Laerm;22259;48.792;8.964;2023-03-14T01:36:10;43.30;41.12;51.43;;
36217;Laerm;22259;48.792;8.964;2023-03-14T01:38:35;43.34;41.24;51.26;;
36217;Laerm;22259;48.792;8.964;2023-03-14T01:41:01;43.72;41.48;52.89;;
36217;Laerm;22259;48.792;8.964;2023-03-14T01:43:27;43.01;40.89;55.54;;
36217;Laerm;22259;48.792;8.964;2023-03-14T01:50:10;43.12;40.87;53.61;;
36217;Laerm;22259;48.792;8.964;2023-03-14T01:52:38;42.94;40.64;51.15;;
36217;Laerm;22259;48.792;8.964;2023-03-14T01:55:08;43.10;40.89;52.39;;
36217;Laerm;22259;48.792;8.964;2023-03-14T01:57:39;43.18;41.30;58.10;;
36217;Laerm;22259;48.792;8.964;2023-03-14T02:00:10;43.90;40.60;52.29;;
36217;Laerm;22259;48.792;8.964;2023-03-14T02:02:37;43.67;41.20;51.98;;
36217;Laerm;22259;48.792;8.964;2023-03-14T02:05:02;43.44;41.30;50.13;;
36217;Laerm;22259;48.792;8.964;2023-03-14T02:10:37;44.19;41.68;52.32;;
36217;Laerm;22259;48.792;8.964;2023-03-14T02:13:03;46.24;41.98;52.88;;
36217;Laerm;22259;48.792;8.964;2023-03-14T02:15:29;44.78;41.88;54.18;;
36217;Laerm;22259;48.792;8.964;2023-03-14T02:17:55;43.94;41.68;51.73;;
36217;Laerm;22259;48.792;8.964;2023-03-14T02:20:29;43.92;41.36;50.11;;
36217;Laerm;22259;48.792;8.964;2023-03-14T02:22:55;44.55;42.13;54.95;;
36217;Laerm;22259;48.792;8.964;2023-03-14T02:31:18;43.43;41.04;51.24;;
36217;Laerm;22259;48.792;8.964;2023-03-14T02:33:43;43.27;41.34;50.02;;
36217;Laerm;22259;48.792;8.964;2023-03-14T02:36:11;43.25;40.57;50.51;;
36217;Laerm;22259;48.792;8.964;2023-03-14T02:38:47;43.63;41.18;53.88;;
36217;Laerm;22259;48.792;8.964;2023-03-14T02:41:15;43.07;40.99;50.13;;
36217;Laerm;22259;48.792;8.964;2023-03-14T02:43:40;43.69;40.95;50.90;;
36217;Laerm;22259;48.792;8.964;2023-03-14T02:46:07;43.42;41.30;55.06;;
36217;Laerm;22259;48.792;8.964;2023-03-14T02:48:39;44.63;41.82;52.47;;
36217;Laerm;22259;48.792;8.964;2023-03-14T02:51:06;44.06;40.93;49.90;;
36217;Laerm;22259;48.792;8.964;2023-03-14T02:53:33;43.43;41.14;51.87;;
36217;Laerm;22259;48.792;8.964;2023-03-14T02:56:00;43.96;41.36;50.93;;
36217;Laerm;22259;48.792;8.964;2023-03-14T02:58:25;43.33;40.97;54.17;;
36217;Laerm;22259;48.792;8.964;2023-03-14T03:00:51;43.48;40.76;51.81;;
36217;Laerm;22259;48.792;8.964;2023-03-14T03:03:16;43.16;40.78;50.46;;
36217;Laerm;22259;48.792;8.964;2023-03-14T03:05:42;43.35;41.00;56.48;;
36217;Laerm;22259;48.792;8.964;2023-03-14T03:08:08;44.15;41.34;53.03;;
36217;Laerm;22259;48.792;8.964;2023-03-14T03:10:34;43.37;41.26;51.67;;
36217;Laerm;22259;48.792;8.964;2023-03-14T03:12:59;43.24;41.06;50.93;;
36217;Laerm;22259;48.792;8.964;2023-03-14T03:15:25;42.99;40.95;50.61;;
36217;Laerm;22259;48.792;8.964;2023-03-14T03:17:50;43.13;41.10;50.27;;
36217;Laerm;22259;48.792;8.964;2023-03-14T03:20:15;43.27;41.38;57.29;;
36217;Laerm;22259;48.792;8.964;2023-03-14T03:22:41;43.05;40.71;50.83;;
36217;Laerm;22259;48.792;8.964;2023-03-14T03:25:07;43.21;40.96;51.45;;
36217;Laerm;22259;48.792;8.964;2023-03-14T03:27:34;43.29;41.00;51.57;;
36217;Laerm;22259;48.792;8.964;2023-03-14T03:29:59;42.95;40.93;49.24;;
36217;Laerm;22259;48.792;8.964;2023-03-14T03:32:25;43.33;41.16;51.78;;
36217;Laerm;22259;48.792;8.964;2023-03-14T03:34:50;43.52;41.46;48.19;;
36217;Laerm;22259;48.792;8.964;2023-03-14T03:37:16;43.67;41.82;51.06;;
36217;Laerm;22259;48.792;8.964;2023-03-14T03:39:41;43.94;41.78;51.69;;
36217;Laerm;22259;48.792;8.964;2023-03-14T03:42:07;43.76;41.70;50.65;;
36217;Laerm;22259;48.792;8.964;2023-03-14T03:44:32;43.47;41.55;50.43;;
36217;Laerm;22259;48.792;8.964;2023-03-14T03:46:57;43.76;41.89;50.71;;
36217;Laerm;22259;48.792;8.964;2023-03-14T03:49:23;43.99;41.77;52.86;;
36217;Laerm;22259;48.792;8.964;2023-03-14T03:51:48;44.10;41.93;50.81;;
36217;Laerm;22259;48.792;8.964;2023-03-14T03:54:13;43.66;41.73;51.60;;
36217;Laerm;22259;48.792;8.964;2023-03-14T03:56:39;43.80;41.94;50.15;;
36217;Laerm;22259;48.792;8.964;2023-03-14T03:59:04;44.47;42.09;55.46;;
36217;Laerm;22259;48.792;8.964;2023-03-14T04:01:30;54.59;42.09;72.45;;
36217;Laerm;22259;48.792;8.964;2023-03-14T04:03:55;44.36;41.98;51.65;;
36217;Laerm;22259;48.792;8.964;2023-03-14T04:06:20;44.05;41.96;51.36;;
36217;Laerm;22259;48.792;8.964;2023-03-14T04:08:46;44.23;42.24;50.02;;
36217;Laerm;22259;48.792;8.964;2023-03-14T04:11:11;44.50;42.32;53.02;;
36217;Laerm;22259;48.792;8.964;2023-03-14T04:13:36;44.36;42.21;56.78;;
36217;Laerm;22259;48.792;8.964;2023-03-14T04:16:02;44.71;42.33;53.12;;
36217;Laerm;22259;48.792;8.964;2023-03-14T04:18:27;44.24;42.13;51.73;;
36217;Laerm;22259;48.792;8.964;2023-03-14T04:20:55;53.00;41.81;70.57;;
36217;Laerm;22259;48.792;8.964;2023-03-14T04:23:21;44.85;42.94;52.10;;
36217;Laerm;22259;48.792;8.964;2023-03-14T04:25:49;44.65;42.61;54.32;;
36217;Laerm;22259;48.792;8.964;2023-03-14T04:28:14;45.39;42.78;54.42;;
36217;Laerm;22259;48.792;8.964;2023-03-14T04:30:40;54.42;43.01;70.14;;
36217;Laerm;22259;48.792;8.964;2023-03-14T04:33:05;44.66;42.56;55.98;;
36217;Laerm;22259;48.792;8.964;2023-03-14T04:35:32;44.46;42.56;50.66;;
36217;Laerm;22259;48.792;8.964;2023-03-14T04:37:58;44.60;42.11;52.99;;
36217;Laerm;22259;48.792;8.964;2023-03-14T04:40:24;44.64;42.58;52.43;;
36217;Laerm;22259;48.792;8.964;2023-03-14T04:42:49;45.20;42.94;54.63;;
36217;Laerm;22259;48.792;8.964;2023-03-14T04:45:14;44.58;42.33;56.75;;
36217;Laerm;22259;48.792;8.964;2023-03-14T04:47:40;45.44;43.05;51.02;;
36217;Laerm;22259;48.792;8.964;2023-03-14T04:50:05;54.21;42.83;68.25;;
36217;Laerm;22259;48.792;8.964;2023-03-14T04:52:31;45.10;42.03;52.98;;
36217;Laerm;22259;48.792;8.964;2023-03-14T04:54:56;45.75;42.97;56.77;;
36217;Laerm;22259;48.792;8.964;2023-03-14T04:57:22;46.40;43.12;56.46;;
36217;Laerm;22259;48.792;8.964;2023-03-14T04:59:47;53.49;43.14;69.05;;
36217;Laerm;22259;48.792;8.964;2023-03-14T05:02:12;48.29;43.62;67.89;;
36217;Laerm;22259;48.792;8.964;2023-03-14T05:04:38;46.06;43.55;55.81;;
36217;Laerm;22259;48.792;8.964;2023-03-14T05:07:03;46.32;43.54;56.58;;
36217;Laerm;22259;48.792;8.964;2023-03-14T05:09:28;47.41;43.49;59.87;;
36217;Laerm;22259;48.792;8.964;2023-03-14T05:11:54;46.80;43.54;54.56;;
36217;Laerm;22259;48.792;8.964;2023-03-14T05:14:19;47.39;43.53;71.57;;
36217;Laerm;22259;48.792;8.964;2023-03-14T05:16:45;47.24;43.34;71.93;;
36217;Laerm;22259;48.792;8.964;2023-03-14T05:19:10;56.38;43.31;71.25;;
36217;Laerm;22259;48.792;8.964;2023-03-14T05:21:35;45.32;43.31;58.03;;
36217;Laerm;22259;48.792;8.964;2023-03-14T05:24:01;45.11;43.24;49.12;;
36217;Laerm;22259;48.792;8.964;2023-03-14T05:26:26;45.48;43.24;50.48;;
36217;Laerm;22259;48.792;8.964;2023-03-14T05:28:52;46.07;43.51;51.54;;
36217;Laerm;22259;48.792;8.964;2023-03-14T05:31:17;54.20;43.28;70.18;;
36217;Laerm;22259;48.792;8.964;2023-03-14T05:33:42;46.79;43.46;68.28;;
36217;Laerm;22259;48.792;8.964;2023-03-14T05:36:08;52.53;43.78;73.05;;
36217;Laerm;22259;48.792;8.964;2023-03-14T05:38:33;49.33;43.78;69.00;;
36217;Laerm;22259;48.792;8.964;2023-03-14T05:40:59;48.59;43.93;64.70;;
36217;Laerm;22259;48.792;8.964;2023-03-14T05:43:24;46.13;43.79;57.62;;
36217;Laerm;22259;48.792;8.964;2023-03-14T05:45:50;46.91;43.94;55.89;;
36217;Laerm;22259;48.792;8.964;2023-03-14T05:48:15;50.45;43.68;69.02;;
36217;Laerm;22259;48.792;8.964;2023-03-14T05:50:41;54.23;43.33;71.03;;
36217;Laerm;22259;48.792;8.964;2023-03-14T05:53:07;45.94;43.39;53.67;;
36217;Laerm;22259;48.792;8.964;2023-03-14T05:55:32;46.74;43.39;66.40;;
36217;Laerm;22259;48.792;8.964;2023-03-14T05:57:57;45.85;43.54;58.00;;
36217;Laerm;22259;48.792;8.964;2023-03-14T06:00:23;54.16;43.99;69.80;;
36217;Laerm;22259;48.792;8.964;2023-03-14T06:02:48;46.65;43.57;53.50;;
36217;Laerm;22259;48.792;8.964;2023-03-14T06:05:14;45.05;42.93;50.10;;
36217;Laerm;22259;48.792;8.964;2023-03-14T06:07:39;46.62;42.90;66.17;;
36217;Laerm;22259;48.792;8.964;2023-03-14T06:10:05;45.50;43.41;52.06;;
36217;Laerm;22259;48.792;8.964;2023-03-14T06:12:30;46.38;43.29;66.86;;
36217;Laerm;22259;48.792;8.964;2023-03-14T06:14:55;45.45;43.28;59.32;;
36217;Laerm;22259;48.792;8.964;2023-03-14T06:17:21;46.35;43.37;65.16;;
36217;Laerm;22259;48.792;8.964;2023-03-14T06:19:46;55.26;43.60;73.86;;
36217;Laerm;22259;48.792;8.964;2023-03-14T06:22:12;48.08;43.45;61.47;;
36217;Laerm;22259;48.792;8.964;2023-03-14T06:24:37;51.31;44.06;67.47;;
36217;Laerm;22259;48.792;8.964;2023-03-14T06:27:03;45.95;43.89;54.90;;
36217;Laerm;22259;48.792;8.964;2023-03-14T06:29:28;46.10;43.08;53.13;;
36217;Laerm;22259;48.792;8.964;2023-03-14T06:31:54;54.01;43.86;69.54;;
36217;Laerm;22259;48.792;8.964;2023-03-14T06:34:19;46.33;43.68;58.39;;
36217;Laerm;22259;48.792;8.964;2023-03-14T06:36:45;46.72;43.44;59.51;;
36217;Laerm;22259;48.792;8.964;2023-03-14T06:39:10;47.21;43.28;66.02;;
36217;Laerm;22259;48.792;8.964;2023-03-14T06:41:35;46.49;43.19;60.31;;
36217;Laerm;22259;48.792;8.964;2023-03-14T06:44:01;45.55;43.26;54.26;;
36217;Laerm;22259;48.792;8.964;2023-03-14T06:46:26;47.52;43.63;60.81;;
36217;Laerm;22259;48.792;8.964;2023-03-14T06:48:52;54.73;43.94;70.69;;
36217;Laerm;22259;48.792;8.964;2023-03-14T06:51:17;47.68;44.14;61.58;;
36217;Laerm;22259;48.792;8.964;2023-03-14T06:53:42;47.03;44.47;52.59;;
36217;Laerm;22259;48.792;8.964;2023-03-14T06:56:08;48.14;44.39;56.67;;
36217;Laerm;22259;48.792;8.964;2023-03-14T06:58:33;46.33;43.56;58.28;;
36217;Laerm;22259;48.792;8.964;2023-03-14T07:00:59;54.34;43.49;70.36;;
36217;Laerm;22259;48.792;8.964;2023-03-14T07:03:24;47.09;44.02;60.95;;
36217;Laerm;22259;48.792;8.964;2023-03-14T07:05:50;47.37;44.07;54.62;;
36217;Laerm;22259;48.792;8.964;2023-03-14T07:08:15;46.51;43.44;62.22;;
36217;Laerm;22259;48.792;8.964;2023-03-14T07:10:41;51.61;43.83;66.05;;
36217;Laerm;22259;48.792;8.964;2023-03-14T07:13:06;45.74;43.39;54.74;;
36217;Laerm;22259;48.792;8.964;2023-03-14T07:15:32;46.09;43.42;60.17;;
36217;Laerm;22259;48.792;8.964;2023-03-14T07:17:57;47.78;43.82;59.51;;
36217;Laerm;22259;48.792;8.964;2023-03-14T07:20:23;54.64;43.70;69.53;;
36217;Laerm;22259;48.792;8.964;2023-03-14T07:22:48;53.74;45.01;68.17;;
36217;Laerm;22259;48.792;8.964;2023-03-14T07:25:14;46.91;44.26;53.57;;
36217;Laerm;22259;48.792;8.964;2023-03-14T07:27:39;46.68;44.11;57.37;;
36217;Laerm;22259;48.792;8.964;2023-03-14T07:30:05;54.25;44.35;69.74;;
36217;Laerm;22259;48.792;8.964;2023-03-14T07:32:31;48.71;43.88;65.86;;
36217;Laerm;22259;48.792;8.964;2023-03-14T07:34:56;47.84;43.71;56.54;;
36217;Laerm;22259;48.792;8.964;2023-03-14T07:37:21;47.60;43.73;60.83;;
36217;Laerm;22259;48.792;8.964;2023-03-14T07:39:47;47.45;43.47;62.75;;
36217;Laerm;22259;48.792;8.964;2023-03-14T07:42:12;47.13;44.45;60.08;;
36217;Laerm;22259;48.792;8.964;2023-03-14T07:44:38;46.91;43.55;54.52;;
36217;Laerm;22259;48.792;8.964;2023-03-14T07:47:03;50.12;44.18;64.37;;
36217;Laerm;22259;48.792;8.964;2023-03-14T07:49:28;55.61;45.59;69.20;;
36217;Laerm;22259;48.792;8.964;2023-03-14T07:51:54;47.92;44.13;57.13;;
36217;Laerm;22259;48.792;8.964;2023-03-14T07:54:19;48.37;44.69;57.86;;
36217;Laerm;22259;48.792;8.964;2023-03-14T07:56:45;50.15;44.24;65.65;;
36217;Laerm;22259;48.792;8.964;2023-03-14T07:59:10;49.79;44.95;62.04;;
36217;Laerm;22259;48.792;8.964;2023-03-14T08:01:37;54.05;44.49;71.75;;
36217;Laerm;22259;48.792;8.964;2023-03-14T08:04:02;49.75;44.33;57.69;;
36217;Laerm;22259;48.792;8.964;2023-03-14T08:06:27;48.95;44.55;59.84;;
36217;Laerm;22259;48.792;8.964;2023-03-14T08:08:53;50.04;44.04;65.55;;
36217;Laerm;22259;48.792;8.964;2023-03-14T08:11:18;51.40;44.30;65.04;;
36217;Laerm;22259;48.792;8.964;2023-03-14T08:13:43;52.16;45.30;61.64;;
36217;Laerm;22259;48.792;8.964;2023-03-14T08:16:15;51.41;44.89;58.91;;
36217;Laerm;22259;48.792;8.964;2023-03-14T08:18:40;54.57;44.32;71.79;;
36217;Laerm;22259;48.792;8.964;2023-03-14T08:21:05;48.46;44.30;57.63;;
36217;Laerm;22259;48.792;8.964;2023-03-14T08:23:31;48.95;44.55;60.29;;
36217;Laerm;22259;48.792;8.964;2023-03-14T08:25:56;50.21;45.50;59.94;;
36217;Laerm;22259;48.792;8.964;2023-03-14T08:28:21;51.96;45.12;60.09;;
36217;Laerm;22259;48.792;8.964;2023-03-14T08:30:47;50.15;44.63;59.68;;
36217;Laerm;22259;48.792;8.964;2023-03-14T08:33:12;54.81;44.45;72.42;;
36217;Laerm;22259;48.792;8.964;2023-03-14T08:35:38;47.93;43.84;67.00;;
36217;Laerm;22259;48.792;8.964;2023-03-14T08:38:03;51.59;44.33;67.78;;
36217;Laerm;22259;48.792;8.964;2023-03-14T08:40:29;52.21;44.23;70.66;;
36217;Laerm;22259;48.792;8.964;2023-03-14T08:42:54;48.63;44.14;57.72;;
36217;Laerm;22259;48.792;8.964;2023-03-14T08:45:19;49.45;43.90;64.69;;
36217;Laerm;22259;48.792;8.964;2023-03-14T08:47:45;50.79;44.90;61.55;;
36217;Laerm;22259;48.792;8.964;2023-03-14T08:50:11;54.98;44.46;70.36;;
36217;Laerm;22259;48.792;8.964;2023-03-14T08:52:36;48.14;44.51;59.59;;
36217;Laerm;22259;48.792;8.964;2023-03-14T08:55:11;50.95;44.67;62.08;;
36217;Laerm;22259;48.792;8.964;2023-03-14T08:57:36;53.28;45.04;63.60;;
36217;Laerm;22259;48.792;8.964;2023-03-14T09:00:02;55.23;44.66;71.34;;
36217;Laerm;22259;48.792;8.964;2023-03-14T09:02:30;47.96;44.31;55.53;;
36217;Laerm;22259;48.792;8.964;2023-03-14T09:04:55;49.51;43.99;57.93;;
36217;Laerm;22259;48.792;8.964;2023-03-14T09:07:21;47.93;43.90;56.56;;
36217;Laerm;22259;48.792;8.964;2023-03-14T09:09:46;52.54;43.65;72.65;;
36217;Laerm;22259;48.792;8.964;2023-03-14T09:12:11;48.64;44.27;61.87;;
36217;Laerm;22259;48.792;8.964;2023-03-14T09:14:37;48.79;43.64;62.47;;
36217;Laerm;22259;48.792;8.964;2023-03-14T09:17:03;46.91;43.66;61.16;;
36217;Laerm;22259;48.792;8.964;2023-03-14T09:19:28;55.28;44.59;71.63;;
36217;Laerm;22259;48.792;8.964;2023-03-14T09:21:54;48.04;44.10;55.68;;
36217;Laerm;22259;48.792;8.964;2023-03-14T09:24:19;48.08;44.20;58.12;;
36217;Laerm;22259;48.792;8.964;2023-03-14T09:26:45;46.80;43.84;57.82;;
36217;Laerm;22259;48.792;8.964;2023-03-14T09:29:10;46.59;43.36;60.01;;
36217;Laerm;22259;48.792;8.964;2023-03-14T09:31:36;54.56;43.57;70.45;;
36217;Laerm;22259;48.792;8.964;2023-03-14T09:34:01;48.75;44.46;65.97;;
36217;Laerm;22259;48.792;8.964;2023-03-14T09:36:26;49.39;43.96;57.84;;
36217;Laerm;22259;48.792;8.964;2023-03-14T09:38:52;51.78;44.97;63.72;;
36217;Laerm;22259;48.792;8.964;2023-03-14T09:41:21;56.30;46.17;70.63;;
36217;Laerm;22259;48.792;8.964;2023-03-14T09:43:49;50.41;44.34;60.72;;
36217;Laerm;22259;48.792;8.964;2023-03-14T09:46:17;47.63;43.93;53.73;;
36217;Laerm;22259;48.792;8.964;2023-03-14T09:48:43;54.72;44.43;69.68;;
36217;Laerm;22259;48.792;8.964;2023-03-14T09:51:12;50.76;45.03;58.60;;
36217;Laerm;22259;48.792;8.964;2023-03-14T09:53:43;49.30;44.52;57.66;;
36217;Laerm;22259;48.792;8.964;2023-03-14T09:56:13;48.51;43.79;65.80;;
36217;Laerm;22259;48.792;8.964;2023-03-14T09:58:40;51.97;45.19;62.58;;
36217;Laerm;22259;48.792;8.964;2023-03-14T10:01:07;55.71;45.15;70.17;;
36217;Laerm;22259;48.792;8.964;2023-03-14T10:03:35;47.49;44.16;54.85;;
36217;Laerm;22259;48.792;8.964;2023-03-14T10:06:00;48.90;43.83;59.89;;
36217;Laerm;22259;48.792;8.964;2023-03-14T10:08:26;55.70;44.75;76.27;;
36217;Laerm;22259;48.792;8.964;2023-03-14T10:10:51;47.33;44.05;56.28;;
36217;Laerm;22259;48.792;8.964;2023-03-14T10:13:19;48.23;43.44;58.41;;
36217;Laerm;22259;48.792;8.964;2023-03-14T10:15:58;50.00;44.28;62.32;;
36217;Laerm;22259;48.792;8.964;2023-03-14T10:18:24;51.57;44.98;68.43;;
36217;Laerm;22259;48.792;8.964;2023-03-14T10:21:01;57.13;45.70;72.44;;
36217;Laerm;22259;48.792;8.964;2023-03-14T10:23:28;52.69;45.39;66.91;;
36217;Laerm;22259;48.792;8.964;2023-03-14T10:29:20;54.16;46.18;80.15;;
36217;Laerm;22259;48.792;8.964;2023-03-14T10:31:48;55.74;45.02;72.04;;
36217;Laerm;22259;48.792;8.964;2023-03-14T10:34:17;60.10;45.06;77.67;;
36217;Laerm;22259;48.792;8.964;2023-03-14T10:36:46;54.73;43.86;76.41;;
36217;Laerm;22259;48.792;8.964;2023-03-14T10:40:34;51.77;43.97;81.85;;
36217;Laerm;22259;48.792;8.964;2023-03-14T10:43:02;48.20;44.33;62.40;;
36217;Laerm;22259;48.792;8.964;2023-03-14T10:45:33;50.98;44.08;61.93;;
36217;Laerm;22259;48.792;8.964;2023-03-14T10:48:05;54.49;43.94;78.20;;
36217;Laerm;22259;48.792;8.964;2023-03-14T10:50:31;55.55;44.28;79.28;;
36217;Laerm;22259;48.792;8.964;2023-03-14T10:52:57;50.23;44.50;65.16;;
36217;Laerm;22259;48.792;8.964;2023-03-14T10:55:25;51.80;45.24;63.96;;
36217;Laerm;22259;48.792;8.964;2023-03-14T10:57:51;50.29;45.19;58.82;;
36217;Laerm;22259;48.792;8.964;2023-03-14T11:00:19;57.31;45.80;74.64;;
36217;Laerm;22259;48.792;8.964;2023-03-14T11:02:59;53.64;45.06;81.76;;
36217;Laerm;22259;48.792;8.964;2023-03-14T11:05:44;47.67;44.19;59.28;;
36217;Laerm;22259;48.792;8.964;2023-03-14T11:08:18;47.51;44.49;60.21;;
36217;Laerm;22259;48.792;8.964;2023-03-14T11:10:46;53.55;44.14;74.77;;
36217;Laerm;22259;48.792;8.964;2023-03-14T11:13:18;53.41;45.22;79.44;;
36217;Laerm;22259;48.792;8.964;2023-03-14T11:16:02;48.33;44.81;61.42;;
36217;Laerm;22259;48.792;8.964;2023-03-14T11:19:19;48.55;44.75;63.29;;
36217;Laerm;22259;48.792;8.964;2023-03-14T11:21:52;53.44;44.78;70.29;;
36217;Laerm;22259;48.792;8.964;2023-03-14T11:24:44;48.14;44.32;61.81;;
36217;Laerm;22259;48.792;8.964;2023-03-14T11:27:22;47.30;44.49;56.21;;
36217;Laerm;22259;48.792;8.964;2023-03-14T11:32:52;52.17;45.22;68.78;;
36217;Laerm;22259;48.792;8.964;2023-03-14T11:35:24;48.80;44.43;60.55;;
36217;Laerm;22259;48.792;8.964;2023-03-14T11:38:03;49.16;44.49;67.91;;
36217;Laerm;22259;48.792;8.964;2023-03-14T11:40:34;50.31;44.65;67.93;;
36217;Laerm;22259;48.792;8.964;2023-03-14T11:43:14;48.73;45.06;68.04;;
36217;Laerm;22259;48.792;8.964;2023-03-14T11:45:41;49.03;44.44;65.30;;
36217;Laerm;22259;48.792;8.964;2023-03-14T11:54:50;51.24;43.50;69.49;;
36217;Laerm;22259;48.792;8.964;2023-03-14T11:57:21;46.12;43.58;60.19;;
36217;Laerm;22259;48.792;8.964;2023-03-14T11:59:52;48.18;43.93;65.86;;
36217;Laerm;22259;48.792;8.964;2023-03-14T12:03:04;52.63;44.09;67.30;;
36217;Laerm;22259;48.792;8.964;2023-03-14T12:05:39;49.33;44.43;71.64;;
36217;Laerm;22259;48.792;8.964;2023-03-14T12:08:30;50.07;45.74;72.09;;
36217;Laerm;22259;48.792;8.964;2023-03-14T12:10:59;50.36;46.20;73.87;;
36217;Laerm;22259;48.792;8.964;2023-03-14T12:13:27;53.03;47.39;68.72;;
36217;Laerm;22259;48.792;8.964;2023-03-14T12:15:55;55.44;48.46;66.00;;
36217;Laerm;22259;48.792;8.964;2023-03-14T12:18:26;56.56;49.22;68.18;;
36217;Laerm;22259;48.792;8.964;2023-03-14T12:21:01;60.35;50.60;76.74;;
36217;Laerm;22259;48.792;8.964;2023-03-14T12:23:28;59.58;51.77;73.51;;
36217;Laerm;22259;48.792;8.964;2023-03-14T12:26:16;61.39;51.57;79.96;;
36217;Laerm;22259;48.792;8.964;2023-03-14T12:28:43;59.05;50.32;75.51;;
36217;Laerm;22259;48.792;8.964;2023-03-14T12:31:44;58.09;49.83;71.19;;
36217;Laerm;22259;48.792;8.964;2023-03-14T12:36:59;59.04;51.54;73.74;;
36217;Laerm;22259;48.792;8.964;2023-03-14T12:39:53;58.29;48.28;73.55;;
36217;Laerm;22259;48.792;8.964;2023-03-14T12:45:35;63.17;50.50;80.77;;
36217;Laerm;22259;48.792;8.964;2023-03-14T12:48:10;57.12;48.11;66.69;;
36217;Laerm;22259;48.792;8.964;2023-03-14T12:50:44;59.42;49.33;78.06;;
36217;Laerm;22259;48.792;8.964;2023-03-14T12:59:52;51.30;46.26;68.56;;
36217;Laerm;22259;48.792;8.964;2023-03-14T13:02:21;57.32;47.80;69.70;;
36217;Laerm;22259;48.792;8.964;2023-03-14T13:04:49;52.21;47.55;65.69;;
36217;Laerm;22259;48.792;8.964;2023-03-14T13:07:30;49.92;45.56;67.66;;
36217;Laerm;22259;48.792;8.964;2023-03-14T13:14:13;53.08;46.83;66.09;;
36217;Laerm;22259;48.792;8.964;2023-03-14T13:16:39;56.95;47.81;71.27;;
36217;Laerm;22259;48.792;8.964;2023-03-14T13:19:11;57.99;47.41;73.90;;
36217;Laerm;22259;48.792;8.964;2023-03-14T13:21:39;61.50;47.57;76.79;;
36217;Laerm;22259;48.792;8.964;2023-03-14T13:24:24;55.09;47.16;69.97;;
36217;Laerm;22259;48.792;8.964;2023-03-14T13:26:51;56.74;46.75;73.10;;
36217;Laerm;22259;48.792;8.964;2023-03-14T13:29:22;51.96;46.59;62.41;;
36217;Laerm;22259;48.792;8.964;2023-03-14T13:31:49;61.76;49.64;82.10;;
36217;Laerm;22259;48.792;8.964;2023-03-14T13:34:15;54.35;46.53;63.58;;
36217;Laerm;22259;48.792;8.964;2023-03-14T13:36:41;50.78;45.59;61.07;;
36217;Laerm;22259;48.792;8.964;2023-03-14T13:39:10;51.86;44.85;61.38;;
36217;Laerm;22259;48.792;8.964;2023-03-14T13:41:38;56.10;48.96;70.69;;
36217;Laerm;22259;48.792;8.964;2023-03-14T13:44:05;55.55;47.40;66.47;;
36217;Laerm;22259;48.792;8.964;2023-03-14T13:46:33;53.70;46.40;70.80;;
36217;Laerm;22259;48.792;8.964;2023-03-14T13:49:01;55.01;48.04;67.35;;
36217;Laerm;22259;48.792;8.964;2023-03-14T13:51:27;59.58;48.91;76.50;;
36217;Laerm;22259;48.792;8.964;2023-03-14T13:53:56;57.14;46.13;71.61;;
36217;Laerm;22259;48.792;8.964;2023-03-14T13:56:25;51.55;46.91;69.45;;
36217;Laerm;22259;48.792;8.964;2023-03-14T13:58:51;60.19;51.58;74.08;;
36217;Laerm;22259;48.792;8.964;2023-03-14T14:01:17;60.94;48.93;75.66;;
36217;Laerm;22259;48.792;8.964;2023-03-14T14:03:44;60.54;50.22;74.43;;
36217;Laerm;22259;48.792;8.964;2023-03-14T14:06:16;53.96;48.20;63.90;;
36217;Laerm;22259;48.792;8.964;2023-03-14T14:08:46;54.07;47.37;70.82;;
36217;Laerm;22259;48.792;8.964;2023-03-14T14:11:14;54.21;47.89;69.01;;
36217;Laerm;22259;48.792;8.964;2023-03-14T14:13:43;61.19;49.90;77.86;;
36217;Laerm;22259;48.792;8.964;2023-03-14T14:16:09;61.91;50.99;77.82;;
36217;Laerm;22259;48.792;8.964;2023-03-14T14:18:35;62.73;51.18;78.77;;
36217;Laerm;22259;48.792;8.964;2023-03-14T14:21:00;59.70;49.39;71.82;;
36217;Laerm;22259;48.792;8.964;2023-03-14T14:23:27;56.99;47.50;73.40;;
36217;Laerm;22259;48.792;8.964;2023-03-14T14:25:54;56.80;48.84;70.50;;
36217;Laerm;22259;48.792;8.964;2023-03-14T14:31:25;53.48;47.49;68.87;;
36217;Laerm;22259;48.792;8.964;2023-03-14T14:33:54;56.78;47.24;71.46;;